Main page
METAR-TAF:

METAR-TAF

Airports :

Minorca, Spain

Menorca Airport

latitude: 39-52N, longitude: 004-14E, elevation: 87 m

Current weather observation

The report was made 14 minutes ago, at 07:00 UTC
Wind 20 kt from the North
Temperature 11°C
Humidity 66%
Pressure 1021 hPa
Visibility 10 km or more
Scattered clouds at a height of 2900 ft

METAR: LEMH 180700Z 01020KT 9999 SCT029 11/05 Q1021

Time: 08:14 (07:14 UTC)

Forecast

The report was made 5 hours and 14 minutes ago, at 02:00 UTC
Forecast valid from 18 at 03 UTC to 19 at 03 UTC
Wind 18 kt from the North
Visibility 10 km or more
Scattered clouds at a height of 1800 ft
Scattered clouds at a height of 3000 ft
Temporary
from 18 at 03 UTC to 18 at 15 UTC
Wind 20 kt from the North with gusts up to 32 kt
Becoming
from 18 at 16 UTC to 18 at 18 UTC
Wind 7 kt from the North/Northwest

TAF: LEMH 180200Z 1803/1903 36018KT 9999 SCT018 SCT030 TX14/1813Z TN07/1806Z TEMPO 1803/1815 36020G32KT BECMG 1816/1818 34007KT

Weather observations and forecasts of more than 4000 airports (METAR and TAF reports).

The available stations are represented by yellow and red dots on the map.

Hover mouse over dot to see the name of the station.

Then click to see weather observations and forecasts.

To change the map : click on the green buttons with a black cross to zoom in, on the green button with a dash to zoom out, or on the green arrows for adjacent maps.


METAR-TAF: